Time;durP1;ratioP1;P1;durP2;ratioP2;P2;SDS_P1;SDS_P2;PMS_P1;PMS_P2;Temp;Humidity;BMP_temperature;BMP_pressure;BME280_temperature;BME280_humidity;BME280_pressure;Samples;Min_cycle;Max_cycle;Signal;HPM_P1;HPM_P2
2021/05/14 00:00:26;;;;;;;3.17;1.27;;;19.20;64.60;;;;;;5054916;28;20025;-83
2021/05/14 00:02:52;;;;;;;2.33;1.20;;;19.20;64.50;;;;;;5054633;28;20067;-80
2021/05/14 00:05:18;;;;;;;1.73;0.85;;;19.20;64.50;;;;;;5053283;28;20121;-81
2021/05/14 00:07:44;;;;;;;2.35;1.17;;;19.20;64.50;;;;;;5054157;28;20060;-83
2021/05/14 00:10:12;;;;;;;1.60;1.17;;;19.20;64.40;;;;;;5052375;28;20456;-78
2021/05/14 00:12:38;;;;;;;2.00;1.25;;;19.20;64.40;;;;;;5055115;28;20132;-82
2021/05/14 00:15:05;;;;;;;4.45;1.50;;;19.20;64.40;;;;;;5054202;28;20056;-71
2021/05/14 00:17:30;;;;;;;2.03;1.10;;;19.20;64.40;;;;;;5052827;28;20104;-72
2021/05/14 00:19:56;;;;;;;1.90;1.10;;;19.10;64.30;;;;;;5053060;28;20109;-78
2021/05/14 00:22:21;;;;;;;2.67;1.17;;;19.20;64.30;;;;;;5052981;28;20120;-78
2021/05/14 00:24:47;;;;;;;2.78;1.25;;;19.10;64.20;;;;;;5053224;28;20473;-75
2021/05/14 00:27:14;;;;;;;2.53;1.05;;;19.10;64.20;;;;;;5052742;28;20029;-76
2021/05/14 00:29:39;;;;;;;2.17;1.20;;;19.10;64.20;;;;;;5053185;28;20056;-73
2021/05/14 00:32:06;;;;;;;2.47;1.00;;;19.10;64.20;;;;;;5053957;28;20059;-72
2021/05/14 00:34:31;;;;;;;2.25;1.48;;;19.10;64.10;;;;;;5052775;28;20454;-71
2021/05/14 00:36:57;;;;;;;2.03;1.50;;;19.10;64.10;;;;;;5053494;28;20104;-81
2021/05/14 00:39:22;;;;;;;2.80;1.23;;;19.10;64.10;;;;;;5053348;28;20037;-82
2021/05/14 00:41:48;;;;;;;1.55;1.08;;;19.10;64.10;;;;;;5053418;28;20101;-81
2021/05/14 00:44:28;;;;;;;1.92;1.23;;;19.10;64.20;;;;;;5052009;28;20105;-81
2021/05/14 00:46:54;;;;;;;3.55;1.30;;;19.10;64.10;;;;;;5052757;28;20053;-79
2021/05/14 00:49:20;;;;;;;2.38;1.25;;;19.10;64.10;;;;;;5052675;28;20033;-76
2021/05/14 00:51:46;;;;;;;1.65;1.00;;;19.00;64.00;;;;;;5053046;28;20500;-79
2021/05/14 00:54:12;;;;;;;1.75;1.13;;;19.00;63.90;;;;;;5052304;28;20037;-81
2021/05/14 00:56:38;;;;;;;1.75;1.00;;;19.00;63.90;;;;;;5052419;28;20485;-81
2021/05/14 00:59:03;;;;;;;2.85;1.40;;;19.00;63.90;;;;;;5053358;28;20112;-80
2021/05/14 01:01:29;;;;;;;1.58;1.00;;;19.00;63.90;;;;;;5050976;28;20045;-81
2021/05/14 01:03:55;;;;;;;2.30;1.15;;;19.00;63.90;;;;;;5057946;28;20029;-79
2021/05/14 01:06:20;;;;;;;1.40;1.10;;;19.00;63.90;;;;;;5057288;28;20047;-82
2021/05/14 01:08:46;;;;;;;2.72;1.30;;;19.00;63.90;;;;;;5054211;28;20100;-84
2021/05/14 01:11:12;;;;;;;2.40;1.30;;;19.00;63.90;;;;;;5052832;28;20029;-83
2021/05/14 01:13:38;;;;;;;1.15;0.90;;;19.00;63.90;;;;;;5052037;28;20029;-82
2021/05/14 01:16:03;;;;;;;1.45;0.90;;;19.00;63.90;;;;;;5052396;28;20033;-79
2021/05/14 01:18:29;;;;;;;2.00;1.17;;;18.90;63.80;;;;;;5052011;28;20033;-79
2021/05/14 01:20:55;;;;;;;2.75;1.48;;;19.00;63.90;;;;;;5051457;28;20036;-78
2021/05/14 01:23:20;;;;;;;2.60;1.33;;;19.00;63.80;;;;;;5052222;28;20032;-75
2021/05/14 01:25:48;;;;;;;1.52;0.90;;;19.00;63.80;;;;;;5052004;28;20033;-71
2021/05/14 01:28:13;;;;;;;2.70;1.30;;;18.90;63.70;;;;;;5051009;28;20037;-82
2021/05/14 01:30:39;;;;;;;2.10;1.25;;;18.90;63.80;;;;;;5052624;28;20497;-79
2021/05/14 01:33:05;;;;;;;2.10;1.27;;;18.90;63.80;;;;;;5052276;28;20489;-82
2021/05/14 01:35:30;;;;;;;2.20;1.25;;;18.90;63.90;;;;;;5051087;28;20458;-82
2021/05/14 01:37:56;;;;;;;1.20;1.00;;;18.90;63.90;;;;;;5050972;28;20510;-83
2021/05/14 01:40:22;;;;;;;2.05;1.23;;;18.90;64.70;;;;;;5052045;28;20029;-81
2021/05/14 01:42:47;;;;;;;2.88;1.25;;;18.90;63.90;;;;;;5051682;28;20412;-84
2021/05/14 01:45:14;;;;;;;2.20;1.35;;;18.90;63.90;;;;;;5051968;28;20083;-83
2021/05/14 01:47:40;;;;;;;2.15;1.58;;;18.90;63.70;;;;;;5051726;28;20137;-79
2021/05/14 01:50:06;;;;;;;1.90;1.20;;;18.90;63.70;;;;;;5051260;28;20025;-75
2021/05/14 01:52:32;;;;;;;3.05;1.48;;;18.80;63.60;;;;;;5050601;28;20049;-77
2021/05/14 01:55:00;;;;;;;2.65;1.40;;;18.80;63.60;;;;;;5051477;28;20110;-73
2021/05/14 01:57:26;;;;;;;2.17;1.20;;;18.80;63.60;;;;;;5049771;28;20060;-83
2021/05/14 01:59:52;;;;;;;3.38;1.25;;;18.80;63.60;;;;;;5052209;28;20029;-83
2021/05/14 02:02:20;;;;;;;2.08;1.10;;;18.80;63.60;;;;;;5050679;28;20071;-82
2021/05/14 02:04:45;;;;;;;1.80;1.13;;;18.80;63.60;;;;;;5052131;28;20033;-84
2021/05/14 02:07:11;;;;;;;2.33;1.02;;;18.80;63.60;;;;;;5051462;28;20036;-84
2021/05/14 02:09:37;;;;;;;1.98;1.17;;;18.80;63.50;;;;;;5052259;28;20091;-87
2021/05/14 02:12:03;;;;;;;1.67;0.98;;;18.80;63.50;;;;;;5051638;28;20120;-86
2021/05/14 02:14:28;;;;;;;2.30;1.30;;;18.80;63.50;;;;;;5051766;28;20928;-81
2021/05/14 02:16:54;;;;;;;2.20;1.20;;;18.80;63.60;;;;;;5051995;28;20021;-84
2021/05/14 02:19:19;;;;;;;3.00;1.30;;;18.80;63.50;;;;;;5050168;28;20025;-76
2021/05/14 02:21:45;;;;;;;1.60;0.93;;;18.80;63.50;;;;;;5051769;28;20025;-72
2021/05/14 02:24:11;;;;;;;2.08;1.13;;;18.80;63.50;;;;;;5050993;28;20412;-84
2021/05/14 02:26:36;;;;;;;1.80;1.20;;;18.80;63.50;;;;;;5051013;28;20051;-77
2021/05/14 02:29:03;;;;;;;2.63;1.23;;;18.80;63.50;;;;;;5051464;28;20025;-78
2021/05/14 02:31:29;;;;;;;1.65;0.98;;;18.80;63.50;;;;;;5051463;28;20029;-78
2021/05/14 02:33:55;;;;;;;2.13;1.30;;;18.70;63.40;;;;;;5050855;28;20025;-78
2021/05/14 02:36:21;;;;;;;3.03;1.30;;;18.70;63.40;;;;;;5051195;28;20108;-76
2021/05/14 02:38:47;;;;;;;2.05;1.20;;;18.70;63.40;;;;;;5050993;28;20033;-78
2021/05/14 02:41:13;;;;;;;1.95;1.30;;;18.70;63.40;;;;;;5050639;28;20040;-70
2021/05/14 02:43:40;;;;;;;3.08;1.80;;;18.70;63.40;;;;;;5051466;28;20074;-72
2021/05/14 02:46:06;;;;;;;2.90;1.00;;;18.70;63.40;;;;;;5051029;28;20404;-73
2021/05/14 02:48:32;;;;;;;3.30;1.30;;;18.70;63.40;;;;;;5050987;28;20868;-72
2021/05/14 02:50:58;;;;;;;1.50;0.90;;;18.70;63.30;;;;;;5051111;28;20033;-73
2021/05/14 02:53:24;;;;;;;1.67;1.35;;;18.70;63.30;;;;;;5050016;28;20021;-72
2021/05/14 02:55:49;;;;;;;1.48;1.08;;;18.70;63.30;;;;;;5050603;28;20043;-81
2021/05/14 02:58:15;;;;;;;2.28;1.15;;;18.70;63.30;;;;;;5050748;28;20025;-82
2021/05/14 03:00:41;;;;;;;1.42;0.80;;;18.70;63.20;;;;;;5051013;28;20377;-81
2021/05/14 03:03:07;;;;;;;2.08;1.23;;;18.70;63.20;;;;;;5050467;28;20539;-80
2021/05/14 03:05:32;;;;;;;1.70;1.00;;;18.60;63.20;;;;;;5049393;28;20400;-81
2021/05/14 03:07:58;;;;;;;2.35;0.98;;;18.60;63.20;;;;;;5050382;28;20438;-81
2021/05/14 03:10:24;;;;;;;1.73;1.10;;;18.60;63.10;;;;;;5051178;28;20029;-75
2021/05/14 03:12:50;;;;;;;1.70;1.27;;;18.60;63.10;;;;;;5050383;28;20099;-78
2021/05/14 03:15:15;;;;;;;1.65;1.08;;;18.60;63.10;;;;;;5050818;28;20581;-72
2021/05/14 03:17:41;;;;;;;2.25;1.00;;;18.60;63.00;;;;;;5050447;28;20087;-83
2021/05/14 03:20:08;;;;;;;2.15;1.13;;;18.50;62.90;;;;;;5050961;28;20029;-84
2021/05/14 03:22:34;;;;;;;1.58;1.13;;;18.60;63.00;;;;;;5051392;28;20061;-84
2021/05/14 03:25:00;;;;;;;3.20;1.30;;;18.50;62.90;;;;;;5051049;28;20025;-82
2021/05/14 03:27:26;;;;;;;3.92;1.17;;;18.50;62.90;;;;;;5051022;28;20033;-84
2021/05/14 03:29:52;;;;;;;1.63;1.20;;;18.50;62.80;;;;;;5050242;28;20080;-82
2021/05/14 03:32:17;;;;;;;1.90;1.15;;;18.50;62.80;;;;;;5050860;28;20028;-87
2021/05/14 03:34:43;;;;;;;2.67;1.10;;;18.50;62.80;;;;;;5050661;28;20021;-78
2021/05/14 03:37:08;;;;;;;2.25;1.63;;;18.50;62.80;;;;;;5050612;28;20044;-72
2021/05/14 03:39:43;;;;;;;2.05;1.30;;;18.50;62.80;;;;;;5051112;28;20036;-78
2021/05/14 03:42:23;;;;;;;2.40;1.40;;;18.50;62.70;;;;;;5050576;28;20060;-73
2021/05/14 03:44:49;;;;;;;1.63;1.10;;;18.50;62.70;;;;;;5053216;28;20021;-74
2021/05/14 03:47:15;;;;;;;1.63;1.38;;;18.50;62.70;;;;;;5060322;28;20032;-71
2021/05/14 03:49:40;;;;;;;2.35;1.30;;;18.50;62.70;;;;;;5054558;28;20096;-84
2021/05/14 03:52:11;;;;;;;3.80;1.15;;;18.50;62.50;;;;;;5052017;28;20116;-83
2021/05/14 03:54:38;;;;;;;2.00;1.30;;;18.50;62.50;;;;;;5051356;28;20543;-84
2021/05/14 03:57:04;;;;;;;1.48;0.93;;;18.50;62.60;;;;;;5050819;28;20021;-84
2021/05/14 03:59:29;;;;;;;1.60;1.10;;;18.40;62.50;;;;;;5050737;28;20106;-83
2021/05/14 04:01:56;;;;;;;2.25;1.20;;;18.50;62.50;;;;;;5050632;28;20063;-84
2021/05/14 04:04:23;;;;;;;2.45;1.20;;;18.40;62.40;;;;;;5050006;28;20044;-84
2021/05/14 04:06:49;;;;;;;2.15;1.25;;;18.40;62.40;;;;;;5053829;28;20112;-84
2021/05/14 04:09:19;;;;;;;2.17;1.20;;;18.40;62.30;;;;;;5053582;28;20071;-83
2021/05/14 04:16:54;;;;;;;3.42;1.42;;;18.40;62.30;;;;;;5054352;28;20065;-82
2021/05/14 04:19:20;;;;;;;2.78;1.38;;;18.40;62.20;;;;;;5053595;28;20025;-84
2021/05/14 04:21:46;;;;;;;1.83;1.30;;;18.30;62.10;;;;;;5053385;28;20041;-82
2021/05/14 04:24:11;;;;;;;2.15;1.08;;;18.40;62.20;;;;;;5053990;28;20059;-79
2021/05/14 04:26:37;;;;;;;1.85;1.20;;;18.30;62.00;;;;;;5054170;28;20457;-84
2021/05/14 04:29:03;;;;;;;1.70;1.10;;;18.30;62.00;;;;;;5053629;28;20480;-80
2021/05/14 04:31:29;;;;;;;2.40;1.08;;;18.30;62.10;;;;;;5052493;28;20032;-81
2021/05/14 04:33:57;;;;;;;1.42;1.10;;;18.30;62.10;;;;;;5053811;28;20024;-76
2021/05/14 04:36:22;;;;;;;2.10;1.10;;;18.30;62.00;;;;;;5052547;28;20028;-75
2021/05/14 04:38:48;;;;;;;1.90;1.40;;;18.30;62.00;;;;;;5052404;28;20033;-73
2021/05/14 04:41:14;;;;;;;2.83;1.20;;;18.30;62.00;;;;;;5052797;28;20032;-84
2021/05/14 04:43:39;;;;;;;2.88;1.60;;;18.30;61.90;;;;;;5053191;28;20041;-78
2021/05/14 04:46:05;;;;;;;2.15;1.20;;;18.30;61.90;;;;;;5054094;28;20071;-83
2021/05/14 04:48:30;;;;;;;2.17;1.25;;;18.30;61.90;;;;;;5052651;28;20021;-80
2021/05/14 04:50:56;;;;;;;3.67;1.60;;;18.30;61.90;;;;;;5052857;28;20032;-79
2021/05/14 04:53:28;;;;;;;2.33;1.20;;;18.30;61.90;;;;;;5052809;28;20036;-76
2021/05/14 04:55:54;;;;;;;2.67;1.52;;;18.30;61.80;;;;;;5033526;28;20400;-74
2021/05/14 04:58:19;;;;;;;2.60;1.30;;;18.20;61.80;;;;;;5033176;28;20100;-74
2021/05/14 05:00:45;;;;;;;2.28;1.20;;;18.20;61.70;;;;;;5046059;28;20023;-75
2021/05/14 05:03:11;;;;;;;2.25;1.40;;;18.20;61.70;;;;;;5052068;28;20041;-70
2021/05/14 05:05:37;;;;;;;2.30;1.20;;;18.20;61.70;;;;;;5053020;28;20108;-70
2021/05/14 05:08:03;;;;;;;2.28;1.38;;;18.20;61.70;;;;;;5052140;28;20469;-70
2021/05/14 05:10:29;;;;;;;1.88;1.20;;;18.20;61.70;;;;;;5052611;28;20020;-70
2021/05/14 05:12:54;;;;;;;2.30;1.33;;;18.20;61.70;;;;;;5052904;28;20108;-71
2021/05/14 05:15:20;;;;;;;2.15;1.23;;;18.20;61.70;;;;;;5052204;28;20025;-75
2021/05/14 05:17:46;;;;;;;2.20;1.30;;;18.20;61.70;;;;;;5052150;28;20063;-84
2021/05/14 05:20:12;;;;;;;1.38;0.95;;;18.20;61.70;;;;;;5052291;28;20033;-77
2021/05/14 05:22:37;;;;;;;2.17;1.15;;;18.20;61.70;;;;;;5053265;28;20489;-82
2021/05/14 05:25:04;;;;;;;2.38;0.90;;;18.20;61.70;;;;;;5051745;28;20036;-75
2021/05/14 05:27:30;;;;;;;1.65;1.02;;;18.20;61.70;;;;;;5051877;28;20091;-76
2021/05/14 05:29:55;;;;;;;1.50;1.08;;;18.20;61.70;;;;;;5051842;28;20447;-83
2021/05/14 05:32:21;;;;;;;2.10;1.23;;;18.20;61.70;;;;;;5051257;28;20029;-78
2021/05/14 05:34:47;;;;;;;2.42;1.40;;;18.20;61.70;;;;;;5052191;28;20047;-76
2021/05/14 05:37:13;;;;;;;2.42;1.25;;;18.10;61.60;;;;;;5051762;28;20029;-78
2021/05/14 05:39:38;;;;;;;2.58;1.08;;;18.20;61.70;;;;;;5051665;28;20092;-72
2021/05/14 05:42:04;;;;;;;2.15;1.30;;;18.10;61.50;;;;;;5052419;28;20033;-83
2021/05/14 05:44:30;;;;;;;1.65;1.33;;;18.10;61.50;;;;;;5051849;28;20029;-83
2021/05/14 05:46:56;;;;;;;2.35;1.30;;;18.10;61.50;;;;;;5052839;28;20508;-83
2021/05/14 05:49:21;;;;;;;2.40;1.25;;;18.10;61.50;;;;;;5052486;28;20052;-84
2021/05/14 05:51:48;;;;;;;3.47;1.23;;;18.10;61.50;;;;;;5052259;28;20021;-83
2021/05/14 05:54:14;;;;;;;2.35;1.40;;;18.10;61.50;;;;;;5052139;28;20095;-81
2021/05/14 05:56:42;;;;;;;1.88;0.90;;;18.10;61.50;;;;;;5051652;28;20472;-83
2021/05/14 05:59:10;;;;;;;1.55;0.90;;;18.20;61.50;;;;;;5052434;28;20025;-81
2021/05/14 06:01:36;;;;;;;2.65;1.33;;;18.10;61.50;;;;;;5052537;28;20407;-82
2021/05/14 06:04:01;;;;;;;2.33;1.30;;;18.10;61.50;;;;;;5052213;28;20029;-76
2021/05/14 06:06:28;;;;;;;1.92;1.13;;;18.10;61.50;;;;;;5051428;28;20029;-72
2021/05/14 06:08:54;;;;;;;1.50;1.10;;;18.10;61.50;;;;;;5051516;28;20028;-77
2021/05/14 06:11:19;;;;;;;1.58;0.90;;;18.10;61.50;;;;;;5051605;28;20028;-85
2021/05/14 06:13:45;;;;;;;2.22;1.30;;;18.10;61.50;;;;;;5050258;28;20040;-85
2021/05/14 06:16:13;;;;;;;3.30;1.10;;;18.10;61.40;;;;;;5051563;28;20048;-85
2021/05/14 06:18:42;;;;;;;2.85;1.30;;;18.10;61.40;;;;;;5047249;28;20036;-71
2021/05/14 06:21:10;;;;;;;2.35;1.23;;;18.00;61.30;;;;;;5047947;28;20033;-85
2021/05/14 06:23:35;;;;;;;1.42;0.95;;;18.10;61.40;;;;;;5050848;28;20098;-82
2021/05/14 06:26:01;;;;;;;1.67;1.15;;;18.00;61.30;;;;;;5051293;28;20520;-81
2021/05/14 06:28:27;;;;;;;2.47;1.00;;;18.10;61.40;;;;;;5054227;28;20114;-74
2021/05/14 06:30:53;;;;;;;1.90;0.90;;;18.00;61.30;;;;;;5055189;28;20106;-71
2021/05/14 06:33:18;;;;;;;1.63;1.00;;;18.00;61.30;;;;;;5052707;28;20052;-79
2021/05/14 06:35:47;;;;;;;1.67;0.95;;;18.10;61.40;;;;;;5051457;28;20036;-84
2021/05/14 06:38:13;;;;;;;2.28;1.00;;;18.00;61.30;;;;;;5052721;28;20017;-87
2021/05/14 06:40:38;;;;;;;2.25;0.93;;;18.00;61.20;;;;;;5053373;28;20025;-84
2021/05/14 06:43:04;;;;;;;1.65;0.98;;;18.10;61.20;;;;;;5051731;28;20098;-87
2021/05/14 06:45:30;;;;;;;2.42;0.90;;;18.00;61.20;;;;;;5052488;28;20025;-83
2021/05/14 06:48:07;;;;;;;1.65;1.10;;;18.00;61.10;;;;;;5051687;28;20043;-82
2021/05/14 06:50:33;;;;;;;3.00;1.10;;;18.00;61.20;;;;;;5050619;28;20382;-77
2021/05/14 06:53:02;;;;;;;2.30;1.52;;;18.00;61.20;;;;;;5051049;28;20033;-73
2021/05/14 06:55:27;;;;;;;1.35;0.80;;;18.00;62.00;;;;;;5051023;28;20037;-69
2021/05/14 06:57:53;;;;;;;2.22;0.90;;;18.00;61.30;;;;;;5051309;28;20040;-70
2021/05/14 07:00:19;;;;;;;3.70;1.10;;;18.00;61.40;;;;;;5050848;28;20557;-85
2021/05/14 07:02:46;;;;;;;1.27;0.68;;;18.00;61.40;;;;;;5051478;28;20045;-78
2021/05/14 07:05:13;;;;;;;1.48;0.85;;;18.00;61.40;;;;;;5050739;28;20049;-76
2021/05/14 07:07:39;;;;;;;3.67;1.25;;;18.10;61.60;;;;;;5050273;28;20096;-74
2021/05/14 07:10:06;;;;;;;6.60;1.48;;;18.00;63.70;;;;;;5050062;28;20021;-81
2021/05/14 07:12:33;;;;;;;7.32;1.33;;;18.00;63.10;;;;;;5047720;28;20025;-72
2021/05/14 07:14:59;;;;;;;10.85;1.27;;;18.10;62.60;;;;;;5047373;28;20032;-70
2021/05/14 07:17:24;;;;;;;2.30;0.85;;;18.20;63.60;;;;;;5048758;28;20115;-70
2021/05/14 07:19:50;;;;;;;1.38;0.70;;;18.30;63.20;;;;;;5046610;28;20017;-71
2021/05/14 07:22:15;;;;;;;3.25;0.98;;;18.30;63.10;;;;;;5047768;28;20025;-75
2021/05/14 07:24:42;;;;;;;3.10;0.98;;;18.40;63.30;;;;;;5049450;28;20092;-71
2021/05/14 07:27:08;;;;;;;2.13;1.33;;;18.40;63.20;;;;;;5050903;28;20412;-71
2021/05/14 07:29:33;;;;;;;5.07;1.23;;;18.50;63.50;;;;;;5050538;28;20036;-70
2021/05/14 07:31:59;;;;;;;4.13;1.40;;;18.60;63.30;;;;;;5066386;28;20112;-75
2021/05/14 07:34:24;;;;;;;6.35;1.52;;;18.70;63.60;;;;;;5050468;28;20039;-81
2021/05/14 07:36:50;;;;;;;19.40;9.63;;;18.80;63.60;;;;;;5049676;28;20017;-80
2021/05/14 07:39:16;;;;;;;54.28;27.25;;;18.90;63.70;;;;;;5050542;28;20067;-83
2021/05/14 07:41:42;;;;;;;56.15;29.50;;;18.90;63.60;;;;;;5053079;28;20044;-80
2021/05/14 07:44:07;;;;;;;41.28;20.55;;;19.00;64.20;;;;;;5054687;28;20408;-84
2021/05/14 07:46:33;;;;;;;40.45;20.05;;;19.10;64.00;;;;;;5054209;28;20028;-88
2021/05/14 07:48:58;;;;;;;34.88;17.30;;;19.10;64.10;;;;;;5055197;28;20063;-84
2021/05/14 07:51:24;;;;;;;25.02;12.82;;;19.20;65.00;;;;;;5053939;28;20081;-82
2021/05/14 07:53:50;;;;;;;24.05;13.00;;;19.20;65.00;;;;;;5054209;28;20102;-79
2021/05/14 07:56:15;;;;;;;21.85;10.40;;;19.30;65.10;;;;;;5052378;28;20029;-81
2021/05/14 07:58:41;;;;;;;21.48;10.90;;;19.40;65.10;;;;;;5054167;28;20477;-80
2021/05/14 08:01:07;;;;;;;19.83;9.15;;;19.40;64.80;;;;;;5054750;28;20161;-79
2021/05/14 08:03:32;;;;;;;18.85;9.48;;;19.50;64.80;;;;;;5054157;28;20037;-80
2021/05/14 08:05:58;;;;;;;18.88;8.77;;;19.50;64.30;;;;;;5053722;28;20516;-79
2021/05/14 08:08:24;;;;;;;20.02;9.52;;;19.60;63.90;;;;;;5054151;28;20032;-78
2021/05/14 08:10:56;;;;;;;14.00;6.75;;;19.60;63.60;;;;;;5053979;28;20098;-81
2021/05/14 08:13:23;;;;;;;14.80;7.05;;;19.70;63.40;;;;;;5053918;28;20029;-79
2021/05/14 08:15:49;;;;;;;19.73;7.63;;;19.80;62.90;;;;;;5069832;28;20399;-74
2021/05/14 08:18:14;;;;;;;14.02;6.07;;;19.80;62.70;;;;;;5053872;28;20021;-87
2021/05/14 08:20:41;;;;;;;15.40;6.18;;;19.90;62.40;;;;;;5054266;28;20024;-91
2021/05/14 08:23:08;;;;;;;14.50;6.65;;;20.00;61.90;;;;;;5053219;28;20040;-83
2021/05/14 08:25:36;;;;;;;14.00;6.25;;;20.00;61.50;;;;;;5054348;28;20108;-87
2021/05/14 08:28:03;;;;;;;12.57;6.10;;;20.10;61.20;;;;;;5054076;28;20071;-84
2021/05/14 08:30:29;;;;;;;10.90;5.00;;;20.20;61.00;;;;;;5052218;28;20538;-80
2021/05/14 08:32:55;;;;;;;12.90;4.53;;;20.20;61.00;;;;;;5053854;28;20017;-83
2021/05/14 08:35:20;;;;;;;13.25;4.57;;;20.30;60.70;;;;;;5052364;28;20465;-80
2021/05/14 08:37:47;;;;;;;11.40;3.53;;;20.30;60.80;;;;;;5052851;28;20031;-75
2021/05/14 08:40:14;;;;;;;6.28;3.50;;;20.40;60.80;;;;;;5053990;28;20071;-74
2021/05/14 08:42:41;;;;;;;9.85;4.00;;;20.40;60.60;;;;;;5054006;28;20033;-76
2021/05/14 08:45:14;;;;;;;9.13;3.53;;;20.50;60.80;;;;;;5054493;28;20028;-75
2021/05/14 08:47:41;;;;;;;6.53;2.97;;;20.60;60.40;;;;;;5053888;28;20029;-76
2021/05/14 08:50:10;;;;;;;7.40;3.15;;;20.70;60.10;;;;;;5053883;28;20075;-77
2021/05/14 08:52:39;;;;;;;5.70;3.20;;;20.80;59.80;;;;;;5053800;28;20389;-76
2021/05/14 08:55:07;;;;;;;6.57;2.97;;;20.90;59.50;;;;;;5053935;28;20025;-76
2021/05/14 08:57:33;;;;;;;7.10;3.05;;;20.90;59.10;;;;;;5053850;28;20021;-78
2021/05/14 08:59:59;;;;;;;7.95;3.13;;;20.90;59.60;;;;;;5053579;28;20024;-78
2021/05/14 09:02:24;;;;;;;5.28;2.30;;;20.90;59.40;;;;;;5053699;28;20036;-77
2021/05/14 09:04:50;;;;;;;5.15;2.05;;;20.90;59.30;;;;;;5053743;28;20100;-77
2021/05/14 09:07:18;;;;;;;7.72;2.33;;;20.90;59.10;;;;;;5053374;28;20032;-78
2021/05/14 09:10:06;;;;;;;7.95;2.47;;;20.90;59.40;;;;;;5052852;28;20029;-77
2021/05/14 09:12:39;;;;;;;6.18;1.77;;;20.90;59.50;;;;;;5053448;28;20393;-78
2021/05/14 09:15:28;;;;;;;5.50;2.03;;;21.00;60.80;;;;;;5053600;28;20029;-77
2021/05/14 09:18:17;;;;;;;5.78;2.00;;;21.00;60.30;;;;;;5052880;28;20068;-77
2021/05/14 09:20:47;;;;;;;4.68;1.80;;;21.00;61.90;;;;;;5052147;28;20090;-77
2021/05/14 09:23:16;;;;;;;4.65;1.50;;;21.10;62.00;;;;;;5052348;28;20029;-75
2021/05/14 09:25:52;;;;;;;3.58;1.17;;;21.10;61.90;;;;;;5052272;28;20021;-76
2021/05/14 09:28:35;;;;;;;3.67;1.40;;;21.10;61.80;;;;;;5052100;28;20582;-80
2021/05/14 09:31:03;;;;;;;3.65;1.67;;;21.10;61.50;;;;;;5033290;28;20387;-77
2021/05/14 09:33:29;;;;;;;2.85;1.55;;;21.10;61.50;;;;;;5049597;28;20550;-77
2021/05/14 09:35:59;;;;;;;6.03;2.13;;;21.00;61.60;;;;;;5052589;28;20108;-76
2021/05/14 09:38:25;;;;;;;5.00;1.90;;;21.00;62.30;;;;;;5052496;28;20051;-84
2021/05/14 09:40:51;;;;;;;4.80;1.65;;;21.00;62.20;;;;;;5051858;28;20028;-77
2021/05/14 09:43:17;;;;;;;4.45;1.55;;;20.90;62.10;;;;;;5052501;28;20097;-76
2021/05/14 09:45:43;;;;;;;5.30;1.45;;;20.90;61.90;;;;;;5052088;28;20025;-74
2021/05/14 09:48:15;;;;;;;9.40;1.40;;;20.90;62.00;;;;;;5053212;28;20119;-76
2021/05/14 09:50:43;;;;;;;4.85;1.83;;;20.80;61.90;;;;;;5052219;28;20025;-75
2021/05/14 09:53:13;;;;;;;4.50;1.58;;;20.80;61.50;;;;;;5052834;28;20034;-76
2021/05/14 09:55:45;;;;;;;4.75;1.60;;;20.80;61.70;;;;;;5053177;28;20021;-77
2021/05/14 09:58:18;;;;;;;4.43;1.70;;;20.90;61.50;;;;;;5053032;28;20531;-77
2021/05/14 10:00:45;;;;;;;2.40;1.10;;;20.90;61.20;;;;;;5052179;28;20017;-76
2021/05/14 10:03:15;;;;;;;3.25;1.90;;;20.90;61.10;;;;;;5050470;28;20080;-76
2021/05/14 10:05:41;;;;;;;3.15;1.27;;;20.90;60.90;;;;;;5051902;28;20017;-76
2021/05/14 10:08:07;;;;;;;3.92;1.55;;;20.90;60.80;;;;;;5052438;28;20032;-77
2021/05/14 10:10:37;;;;;;;4.32;1.40;;;21.00;60.70;;;;;;5052675;28;20155;-77
2021/05/14 10:13:03;;;;;;;2.63;1.45;;;21.00;60.50;;;;;;5052289;28;20053;-77
2021/05/14 10:15:31;;;;;;;3.47;1.20;;;21.10;60.30;;;;;;5051899;28;20049;-77
2021/05/14 10:17:58;;;;;;;4.80;1.10;;;21.10;60.20;;;;;;5052116;28;20120;-77
2021/05/14 10:20:28;;;;;;;4.97;1.35;;;21.20;60.30;;;;;;5052085;28;20504;-77
2021/05/14 10:22:55;;;;;;;3.30;1.05;;;21.10;60.00;;;;;;5053322;28;20382;-77
2021/05/14 10:25:42;;;;;;;2.70;1.02;;;21.10;60.10;;;;;;5050458;28;20029;-77
2021/05/14 10:28:12;;;;;;;2.45;1.30;;;21.10;60.30;;;;;;5051619;28;20062;-77
2021/05/14 10:30:58;;;;;;;2.20;1.02;;;21.10;60.90;;;;;;5049006;28;20079;-77
2021/05/14 10:33:53;;;;;;;4.13;1.20;;;21.10;61.00;;;;;;5050585;28;20060;-77
2021/05/14 10:36:21;;;;;;;3.35;1.30;;;21.10;60.60;;;;;;5037375;28;20053;-77
2021/05/14 10:39:05;;;;;;;3.60;1.55;;;21.10;61.00;;;;;;5051146;28;20029;-77
2021/05/14 10:41:31;;;;;;;2.70;1.02;;;21.10;60.80;;;;;;5081524;28;20044;-75
2021/05/14 10:44:04;;;;;;;3.90;1.20;;;21.10;61.30;;;;;;5049948;28;20041;-75
2021/05/14 10:46:30;;;;;;;2.30;1.08;;;21.10;61.10;;;;;;5050276;28;20021;-79
2021/05/14 10:49:07;;;;;;;2.55;1.13;;;21.10;61.00;;;;;;5051608;28;20025;-74
2021/05/14 10:51:48;;;;;;;3.90;1.05;;;21.10;61.00;;;;;;5051512;28;20026;-71
2021/05/14 10:54:39;;;;;;;4.38;1.00;;;21.20;60.70;;;;;;5050666;28;20036;-75
2021/05/14 10:57:06;;;;;;;5.93;0.93;;;21.20;61.00;;;;;;5050438;28;20032;-79
2021/05/14 10:59:34;;;;;;;3.10;1.00;;;21.10;61.20;;;;;;5049913;28;20445;-78
2021/05/14 11:02:01;;;;;;;2.10;0.90;;;21.20;61.50;;;;;;5051399;28;20021;-75
2021/05/14 11:04:26;;;;;;;2.63;1.05;;;21.10;61.40;;;;;;5050523;28;20108;-79
2021/05/14 11:06:53;;;;;;;7.95;1.10;;;21.20;62.00;;;;;;5050066;28;20108;-78
2021/05/14 11:09:22;;;;;;;6.03;1.13;;;21.20;63.20;;;;;;5051176;28;20048;-75
2021/05/14 11:12:01;;;;;;;4.25;0.90;;;21.20;63.40;;;;;;5051618;28;20067;-76
2021/05/14 11:14:57;;;;;;;2.63;0.80;;;21.20;64.60;;;;;;5053813;28;20083;-80
2021/05/14 11:17:22;;;;;;;2.50;1.25;;;21.20;63.90;;;;;;5089961;28;20028;-78
2021/05/14 11:19:50;;;;;;;7.97;1.35;;;21.20;65.00;;;;;;5057997;28;20025;-78
2021/05/14 11:22:27;;;;;;;2.33;0.77;;;21.20;64.80;;;;;;5058386;28;20473;-75
2021/05/14 11:25:05;;;;;;;3.55;1.00;;;21.10;64.40;;;;;;5057839;28;20384;-77
2021/05/14 11:27:33;;;;;;;1.88;0.80;;;21.10;64.50;;;;;;5057821;28;20036;-76
2021/05/14 11:30:09;;;;;;;1.58;0.77;;;21.10;64.90;;;;;;5057713;28;20021;-76
2021/05/14 11:32:44;;;;;;;6.72;0.90;;;21.00;64.60;;;;;;5058006;28;20049;-74
2021/05/14 11:35:22;;;;;;;4.57;1.10;;;21.00;64.10;;;;;;5057519;28;20017;-76
2021/05/14 11:37:58;;;;;;;3.78;0.52;;;21.00;64.30;;;;;;5058435;28;20612;-76
2021/05/14 11:40:25;;;;;;;;;;;21.00;64.30;;;;;;5058365;28;20013;-76
2021/05/14 11:42:52;;;;;;;2.58;0.82;;;21.00;64.20;;;;;;5055873;28;19913;-77
2021/05/14 11:45:20;;;;;;;4.55;1.05;;;21.00;64.30;;;;;;5056243;28;20532;-76
2021/05/14 11:47:48;;;;;;;2.70;0.90;;;21.00;64.20;;;;;;5057831;28;20503;-76
2021/05/14 11:50:29;;;;;;;3.03;0.77;;;20.90;64.10;;;;;;5057912;28;20060;-76
2021/05/14 11:52:55;;;;;;;3.28;1.10;;;20.90;63.80;;;;;;5056186;28;20392;-77
2021/05/14 11:55:22;;;;;;;1.90;1.08;;;20.90;63.80;;;;;;5057276;28;20017;-77
2021/05/14 11:57:51;;;;;;;3.95;0.80;;;20.90;63.60;;;;;;5057637;28;20496;-78
2021/05/14 12:00:25;;;;;;;2.20;0.80;;;20.90;63.40;;;;;;5057807;28;20025;-76
2021/05/14 12:02:51;;;;;;;3.17;0.93;;;20.90;63.30;;;;;;5057093;28;20025;-76
2021/05/14 12:05:17;;;;;;;2.97;0.80;;;20.90;63.10;;;;;;5057064;28;20016;-76
2021/05/14 12:07:43;;;;;;;1.27;0.63;;;20.90;62.80;;;;;;5055708;28;20059;-75
2021/05/14 12:10:15;;;;;;;1.67;0.73;;;21.00;62.70;;;;;;5056219;28;20021;-76
2021/05/14 12:12:42;;;;;;;1.45;0.63;;;21.00;62.50;;;;;;5054538;28;20507;-75
2021/05/14 12:15:10;;;;;;;2.30;0.77;;;21.00;62.20;;;;;;5053842;28;20480;-77
2021/05/14 12:17:37;;;;;;;1.33;0.60;;;21.00;62.20;;;;;;5055895;28;20107;-77
2021/05/14 12:20:27;;;;;;;3.38;0.80;;;21.00;62.20;;;;;;5054761;28;20035;-78
2021/05/14 12:22:56;;;;;;;3.13;0.98;;;20.90;62.20;;;;;;5055923;28;20071;-78
2021/05/14 12:25:22;;;;;;;1.50;0.60;;;20.90;62.10;;;;;;5055147;28;20047;-76
2021/05/14 12:27:49;;;;;;;2.13;0.60;;;20.90;62.00;;;;;;5052729;28;20048;-78
2021/05/14 12:30:16;;;;;;;2.13;0.90;;;20.90;62.10;;;;;;5052993;28;20070;-77
2021/05/14 12:32:57;;;;;;;1.50;0.68;;;20.90;62.00;;;;;;5053065;28;20083;-77
2021/05/14 12:35:23;;;;;;;2.22;0.80;;;21.00;61.80;;;;;;5053683;28;20053;-77
2021/05/14 12:37:57;;;;;;;2.30;0.70;;;21.00;61.80;;;;;;5054240;28;20430;-78
2021/05/14 12:40:37;;;;;;;6.38;0.77;;;20.90;61.60;;;;;;5053920;28;20477;-78
2021/05/14 12:43:07;;;;;;;0.93;0.70;;;21.00;61.50;;;;;;5053953;28;20064;-77
2021/05/14 12:45:35;;;;;;;2.78;0.70;;;21.00;61.40;;;;;;5052511;28;20056;-77
2021/05/14 12:48:02;;;;;;;1.35;0.70;;;21.00;61.30;;;;;;5050906;28;20492;-76
2021/05/14 12:50:28;;;;;;;1.63;0.82;;;21.00;61.20;;;;;;5052385;28;20029;-75
2021/05/14 12:52:54;;;;;;;2.17;0.88;;;21.10;61.20;;;;;;5051177;28;20033;-76